Record high temperature 41.7°C Record low temperature -40.8°C Record high gust 62.9 km/h Record high average 34.6 km/h Record daily rain 34.8 mm Record low windchill -42.6°C Record high barometer 1044.6 hPa Record low barometer 978.5 hPa
Daily high pressure 1011.5 hPa Daily low pressure 1008.6 hPa Daily low windchill 1.3°C Daily high heat index 10.2°C Daily high gust speed 29.8 kmh WNW Daily high average speed 15.6 kmh W
Wetterdaten
LETZTE AKTUALISIERUNG UM: 11:15 DATUM: 16 April 2024, time of next update: 11:30
Aktuelles Wettermostly cloudy Aktuelle Temperatur 10.1°C (50.1°F), Apparent temp 8.2°C, Apparent temp solar 15.0°C
Höchsttemperatur (seit Mitternacht)10.2°C um: 10:54 Tiefsttemperatur (seit Mitternacht)4.7°C um: 06:06
Windgeschwindigkeit (10 Minuten )8.9 kmh (4.8 kts) Windrichtung (Dir) (10 Minuten )WNW (294°)
Windchill Temperatur 10.1°C Windspitzen (letzte Std)29.8 kmh (16.1 kts) um: 10:16
Windspitzen (seit Mitternacht)29.8 kmh (16.1 kts) um: 10:16 Höchstes Windmittel / Minute (seit Mitternacht)15.6 kmh (8.4 kts) um: 11:06
Regenmenge (letzte Std)0.0 mm Regenmenge (seit Mitternacht)0.0 mm (0.00 in.) at 06:26
Regenmenge diesen Monat 11.6 mm (0.46 in.) Regenmenge seit Jahresbeginn 137.0 mm (5.39 in.)
Höchste Regenmenge pro Minute (letzte Std)0.0 mm/min Höchste Regenmenge pro Stunde (letzte 6 Std)0.4 mm/stunde
Regenmenge Gestern 1.8 mm Taupunkt 0.6°C (Wet Bulb :6.2°C )
Luftfeuchtigkeit 52 %, Humidex 8.1°C Aktueller Luftdruck (auf Meereshöhe bezogen)1009.1 hPa
Luftdrucktendenz -0.4 hPa (letzte Std) Trend (letzte 1 Std)gleichbleibend
Luftdrucktendenz (letzte 12 Std)-2.6 hPa Luftdrucktendenz (letzte 6 Std)-0.1 hPa
Maximum Soil temperature (seit Mitternacht) 17.2°C Minimum Soil temperature(seit Mitternacht)13.3°C
Current Soil temperature 17°C
Current Solar 796 W/m²
Maximum solar (seit Mitternacht) 796 W/m² Minimum solar(seit Mitternacht)0 W/m²
Current 00:30 hours of sunshine today, current sky: bewölkt
Sunshine hours for the year: 125:30 hrs Sunshine hours for the month: 17:09 hrs
Current evapotranspiration rate 1.3 mm per day. Yesterday's reading 1.6

Diese Seite wurde mit aktuellen Daten einer DAVIS VP Wetterstation erstellt. Drücken Sie bitte auf "Aktualisieren" oder "neu laden" um die neuesten Daten zu erhalten.


Latest Web Cam Image


Weather report/warning/Metars

Stuttgart-Echterdingen, Germany (EDDS) 48-41N 009-13E 391M
Apr 16, 2024 - 04:50 AM EDT / 2024.04.16 0850 UTC
Wind: from the WSW (240 degrees) at 22 MPH (19 KT) gusting to 36 MPH (31 KT) (direction variable):0
Visibility: greater than 7 mile(s):0
Sky conditions: mostly cloudy
Temperature: 48 F (9 C)
Dew Point: 32 F (0 C)
Relative Humidity: 53%
Pressure (altimeter): 29.74 in. Hg (1007 hPa)
ob: EDDS 160850Z AUTO 24019G31KT 170V270 9999 SCT039 BKN046 09/00 Q1007 NOSIG
cycle: 9
Augsburg, Germany (EDMA) 48-26N 010-56E 463M
Apr 16, 2024 - 04:50 AM EDT / 2024.04.16 0850 UTC
Wind: from the WSW (240 degrees) at 20 MPH (17 KT) (direction variable):0
Visibility: greater than 7 mile(s):0
Sky conditions: mostly cloudy
Temperature: 44 F (7 C)
Dew Point: 35 F (2 C)
Relative Humidity: 70%
Pressure (altimeter): 29.80 in. Hg (1009 hPa)
ob: EDMA 160850Z 24017KT 210V270 9999 SCT025 BKN045 07/02 Q1009
cycle: 9
Nuernberg, Germany (EDDN) 49-30N 011-03E 318M
Apr 16, 2024 - 04:50 AM EDT / 2024.04.16 0850 UTC
Wind: from the WSW (250 degrees) at 20 MPH (17 KT):0
Visibility: greater than 7 mile(s):0
Sky conditions: mostly cloudy
Temperature: 46 F (8 C)
Dew Point: 32 F (0 C)
Relative Humidity: 56%
Pressure (altimeter): 29.71 in. Hg (1006 hPa)
ob: EDDN 160850Z AUTO 25017KT 9999 BKN034 BKN041 BKN047 08/00 Q1006 TEMPO 28020G35KT
cycle: 9
Berlin-Tegel, Germany (EDDT) 52-34N 013-19E 37M
Nov 09, 2020 - 01:50 AM EST / 2020.11.09 0650 UTC
Wind: from the E (090 degrees) at 7 MPH (6 KT) (direction variable):0
Visibility: 1 mile(s):0
Sky conditions: overcast
Weather: mist
Temperature: 42 F (6 C)
Dew Point: 41 F (5 C)
Relative Humidity: 93%
Pressure (altimeter): 30.33 in. Hg (1027 hPa)
ob: EDDT 090650Z 09006KT 050V120 3000 BR OVC003 06/05 Q1027
cycle: 7
Friedrichshafen, Germany (EDNY) 47-40N 009-31E 424M
Apr 16, 2024 - 04:50 AM EDT / 2024.04.16 0850 UTC
Wind: from the W (260 degrees) at 23 MPH (20 KT) gusting to 38 MPH (33 KT) (direction variable):0
Visibility: greater than 7 mile(s):0
Sky conditions: mostly clear
Temperature: 44 F (7 C)
Dew Point: 32 F (0 C)
Relative Humidity: 60%
Pressure (altimeter): 29.88 in. Hg (1012 hPa)
ob: EDNY 160850Z 26020G33KT 230V300 9999 FEW034 07/00 Q1012
cycle: 9
Hamburg-Finkenwerder, Germany (EDHI) 53-32N 009-50E 13M
Apr 16, 2024 - 04:50 AM EDT / 2024.04.16 0850 UTC
Wind: from the WSW (250 degrees) at 8 MPH (7 KT):0
Visibility: greater than 7 mile(s):0
Sky conditions: overcast
Temperature: 46 F (8 C)
Dew Point: 39 F (4 C)
Relative Humidity: 75%
Pressure (altimeter): 29.47 in. Hg (0998 hPa)
ob: EDHI 160850Z 25007KT 9999 SCT016 BKN023 OVC041 08/04 Q0998
cycle: 9
Amsterdam Airport Schiphol, Netherlands (EHAM) 52-18N 004-46E -2M
Apr 16, 2024 - 04:55 AM EDT / 2024.04.16 0855 UTC
Wind: from the NW (320 degrees) at 18 MPH (16 KT):0
Visibility: 4 mile(s):0
Sky conditions: mostly cloudy
Weather: light rain showers; Towering cumulus clouds observed
Temperature: 48 F (9 C)
Dew Point: 44 F (7 C)
Relative Humidity: 87%
Pressure (altimeter): 29.56 in. Hg (1001 hPa)
ob: EHAM 160855Z 32016KT 7000 -SHRA FEW011 SCT015 SCT020TCU BKN032 09/07 Q1001 RESHRA BECMG 9999 NSW
cycle: 9
Stockholm/Skavsta, Sweden (ESKN) 58-47N 016-55E
Apr 16, 2024 - 04:50 AM EDT / 2024.04.16 0850 UTC
Wind: from the NNW (330 degrees) at 10 MPH (9 KT) (direction variable):0
Visibility: greater than 7 mile(s):0
Sky conditions: partly cloudy
Temperature: 41 F (5 C)
Dew Point: 32 F (0 C)
Relative Humidity: 70%
Pressure (altimeter): 29.53 in. Hg (1000 hPa)
ob: ESKN 160850Z 33009KT 290V360 9999 SCT021 05/00 Q1000
cycle: 9
Ramstein, Germany (ETAR) 49-26N 007-36E 237M
Apr 16, 2024 - 05:05 AM EDT / 2024.04.16 0905 UTC
Wind: from the WSW (240 degrees) at 17 MPH (15 KT) gusting to 28 MPH (24 KT):0
Visibility: greater than 7 mile(s):0
Sky conditions: mostly cloudy
Weather: light rain
Temperature: 42 F (6 C)
Dew Point: 39 F (4 C)
Relative Humidity: 86%
Pressure (altimeter): 29.71 in. Hg (1006 hPa)
ob: ETAR 160905Z AUTO 24015G24KT 9999 -RA BKN020 06/04 A2971 RMK AO2 CIG 018V022 CIG 019 RWY08 SLP069 
cycle: 9
Laupheim, Germany (ETHL) 48-13N 009-55E 550M
Apr 16, 2024 - 04:20 AM EDT / 2024.04.16 0820 UTC
Wind: from the WSW (250 degrees) at 20 MPH (17 KT):0
Visibility: greater than 7 mile(s):0
Sky conditions: mostly cloudy
Temperature: 42 F (6 C)
Dew Point: 32 F (0 C)
Relative Humidity: 65%
Pressure (altimeter): 29.80 in. Hg (1009 hPa)
ob: ETHL 160820Z 25017KT 9999 SCT026 BKN037 06/M00 Q1009 BLU BLU TEMPO WHT
cycle: 8
Gran Canaria - Canary Islands, Spain (GCLP) 27-56N 015-23W 47M
Apr 16, 2024 - 05:00 AM EDT / 2024.04.16 0900 UTC
Wind: from the NE (040 degrees) at 20 MPH (17 KT):0
Visibility: greater than 7 mile(s):0
Sky conditions: mostly clear
Temperature: 71 F (22 C)
Dew Point: 64 F (18 C)
Relative Humidity: 78%
Pressure (altimeter): 30.03 in. Hg (1017 hPa)
ob: GCLP 160900Z 04017KT 9999 FEW020 22/18 Q1017 NOSIG
cycle: 9
Hurguada, Egypt (HEGN) 27-09N 033-43E 14M
Apr 16, 2024 - 04:00 AM EDT / 2024.04.16 0800 UTC
Wind: from the N (350 degrees) at 9 MPH (8 KT):0
Visibility: greater than 7 mile(s):0
Temperature: 80 F (27 C)
Dew Point: 44 F (7 C)
Relative Humidity: 28%
Pressure (altimeter): 29.94 in. Hg (1014 hPa)
ob: HEGN 160800Z 35008KT CAVOK 27/07 Q1014 NOSIG
cycle: 8
Chicago / Meigs, IL, United States (KCGX) 41-52N 087-36W
Jun 18, 2008 - 01:45 PM EDT / 2008.06.18 1745 UTC
Wind: from the NW (310 degrees) at 6 MPH (5 KT):0
Visibility: 15 mile(s):0
Sky conditions: overcast
Temperature: 57 F (14 C)
Dew Point: 51 F (11 C)
Relative Humidity: 82%
Pressure (altimeter): 29.89 in. Hg (1012 hPa)
ob: KCGX 181745Z 31005KT 15SM BKN014 OVC030 14/11 A2989
cycle: 18
Paris-Aeroport Charles De Gaulle, France (LFPG) 49-01N 002-32E 109M
Apr 16, 2024 - 05:00 AM EDT / 2024.04.16 0900 UTC
Wind: from the WNW (290 degrees) at 17 MPH (15 KT):0
Visibility: greater than 7 mile(s):0
Sky conditions: mostly cloudy
Weather: light rain showers; Towering cumulus clouds observed
Temperature: 48 F (9 C)
Dew Point: 42 F (6 C)
Relative Humidity: 81%
Pressure (altimeter): 29.91 in. Hg (1013 hPa)
ob: LFPG 160900Z 29015KT 9999 -SHRA FEW020TCU BKN026 BKN046 09/06 Q1013 TEMPO 28015G25KT
cycle: 9
Hyeres, France (LFTH) 43-06N 006-09E 4M
Apr 16, 2024 - 05:00 AM EDT / 2024.04.16 0900 UTC
Wind: from the WNW (300 degrees) at 24 MPH (21 KT) gusting to 41 MPH (36 KT) (direction variable):0
Visibility: greater than 7 mile(s):0
Temperature: 66 F (19 C)
Dew Point: 37 F (3 C)
Relative Humidity: 34%
Pressure (altimeter): 29.74 in. Hg (1007 hPa)
ob: LFTH 160900Z AUTO 30021G36KT 270V330 CAVOK 19/03 Q1007 NOSIG
cycle: 9



Die Wetterdaten werden alle 2 Minuten gespeichert, aber die Datenübertragung findet jede Minute statt. Die beste Ansicht wird in einer Auflösung von 800 x 600 und "True colour" erzielt. Linie zeigt die relative Luftfeuchtigkeit an.

Drücken Sie bitte auf "Aktualisieren" in Ihrem Browser, um die aktuellsten Daten zu erhalten.

Klicken Sie hier, um eine Übersicht der Durchschnitts- u. Extremwerte für den Monat zu erhalten
Created by "Weather Display" software version 10.37S151 at this start time/date 06:03:40 15.04.2024